createdAt,value
2018-05-15T00:02:24.895Z,8.80
2018-05-15T00:04:52.487Z,8.80
2018-05-15T00:07:25.090Z,8.80
2018-05-15T00:09:52.712Z,8.70
2018-05-15T00:12:20.262Z,8.70
2018-05-15T00:14:47.881Z,8.70
2018-05-15T00:17:15.568Z,8.80
2018-05-15T00:19:43.886Z,8.80
2018-05-15T00:22:11.467Z,8.80
2018-05-15T00:24:39.815Z,8.80
2018-05-15T00:27:07.544Z,8.80
2018-05-15T00:29:35.162Z,8.80
2018-05-15T00:32:02.741Z,8.80
2018-05-15T00:34:30.350Z,8.80
2018-05-15T00:36:58.032Z,8.80
2018-05-15T00:39:25.607Z,8.90
2018-05-15T00:41:53.177Z,8.90
2018-05-15T00:44:20.875Z,9.00
2018-05-15T00:46:48.335Z,9.00
2018-05-15T00:49:15.919Z,9.00
2018-05-15T00:51:43.528Z,9.10
2018-05-15T00:54:11.105Z,9.10
2018-05-15T00:56:38.642Z,9.10
2018-05-15T00:59:06.248Z,9.10
2018-05-15T01:01:33.794Z,9.10
2018-05-15T01:04:01.376Z,9.10
2018-05-15T01:06:29.026Z,9.00
2018-05-15T01:08:56.610Z,9.00
2018-05-15T01:11:24.192Z,9.10
2018-05-15T01:13:51.750Z,9.10
2018-05-15T01:16:19.337Z,9.10
2018-05-15T01:18:46.919Z,9.10
2018-05-15T01:21:14.514Z,9.00
2018-05-15T01:23:42.095Z,9.00
2018-05-15T01:26:09.675Z,8.90
2018-05-15T01:28:37.237Z,9.00
2018-05-15T01:31:04.829Z,9.00
2018-05-15T01:33:32.383Z,8.90
2018-05-15T01:35:59.922Z,8.90
2018-05-15T01:38:27.502Z,8.90
2018-05-15T01:40:55.095Z,8.90
2018-05-15T01:43:22.690Z,8.90
2018-05-15T01:45:50.328Z,8.90
2018-05-15T01:48:17.929Z,8.90
2018-05-15T01:50:45.538Z,8.90
2018-05-15T01:53:13.922Z,8.90
2018-05-15T01:55:41.470Z,8.90
2018-05-15T01:58:09.806Z,9.00
2018-05-15T02:00:37.415Z,9.00
2018-05-15T02:03:04.986Z,9.00
2018-05-15T02:05:32.595Z,9.00
2018-05-15T02:08:00.178Z,9.00
2018-05-15T02:10:27.771Z,9.00
2018-05-15T02:12:55.337Z,9.10
2018-05-15T02:15:22.919Z,9.20
2018-05-15T02:17:50.528Z,9.20
2018-05-15T02:20:18.585Z,9.20
2018-05-15T02:22:46.905Z,9.30
2018-05-15T02:25:14.510Z,9.30
2018-05-15T02:27:42.115Z,9.20
2018-05-15T02:30:09.703Z,9.20
2018-05-15T02:32:37.249Z,9.20
2018-05-15T02:35:04.833Z,9.30
2018-05-15T02:37:56.576Z,9.20
2018-05-15T02:40:24.144Z,9.20
2018-05-15T02:42:51.681Z,9.20
2018-05-15T02:45:19.283Z,9.20
2018-05-15T02:47:46.876Z,9.20
2018-05-15T02:50:14.483Z,9.30
2018-05-15T02:52:42.843Z,9.30
2018-05-15T02:55:10.409Z,9.30
2018-05-15T02:57:38.003Z,9.30
2018-05-15T03:00:05.720Z,9.40
2018-05-15T03:02:33.332Z,9.40
2018-05-15T03:05:00.911Z,9.30
2018-05-15T03:07:38.329Z,9.30
2018-05-15T03:10:05.975Z,9.30
2018-05-15T03:12:33.534Z,9.30
2018-05-15T03:15:01.139Z,9.30
2018-05-15T03:17:34.596Z,9.30
2018-05-15T03:20:02.151Z,9.30
2018-05-15T03:22:29.736Z,9.30
2018-05-15T03:24:57.304Z,9.30
2018-05-15T03:27:24.860Z,9.30
2018-05-15T03:29:52.469Z,9.40
2018-05-15T03:32:20.005Z,9.40
2018-05-15T03:34:47.605Z,9.40
2018-05-15T03:37:15.216Z,9.40
2018-05-15T03:39:42.820Z,9.40
2018-05-15T03:42:10.392Z,9.40
2018-05-15T03:44:38.017Z,9.40
2018-05-15T03:47:05.592Z,9.50
2018-05-15T03:49:33.141Z,9.50
2018-05-15T03:52:00.764Z,9.50
2018-05-15T03:54:29.111Z,9.30
2018-05-15T03:56:56.672Z,9.30
2018-05-15T03:59:24.280Z,9.20
2018-05-15T04:02:04.392Z,9.20
2018-05-15T04:04:43.682Z,9.20
2018-05-15T04:07:23.083Z,9.20
2018-05-15T04:09:51.426Z,9.20
2018-05-15T04:12:19.043Z,9.10
2018-05-15T04:14:46.596Z,9.10
2018-05-15T04:17:28.485Z,9.10
2018-05-15T04:19:56.919Z,9.00
2018-05-15T04:22:24.475Z,9.00
2018-05-15T04:24:52.075Z,9.10
2018-05-15T04:27:19.651Z,9.10
2018-05-15T04:29:47.223Z,9.10
2018-05-15T04:32:14.811Z,9.10
2018-05-15T04:34:42.352Z,9.20
2018-05-15T04:37:09.947Z,9.20
2018-05-15T04:39:37.547Z,9.30
2018-05-15T04:42:05.126Z,9.30
2018-05-15T04:44:32.702Z,9.20
2018-05-15T04:47:00.268Z,9.30
2018-05-15T04:49:27.839Z,9.20
2018-05-15T04:51:55.440Z,9.20
2018-05-15T04:54:23.784Z,9.20
2018-05-15T04:56:51.363Z,9.30
2018-05-15T04:59:19.759Z,9.30
2018-05-15T05:01:47.327Z,9.20
2018-05-15T05:04:14.911Z,9.30
2018-05-15T05:06:42.503Z,9.20
2018-05-15T05:09:10.129Z,9.30
2018-05-15T05:11:37.744Z,9.30
2018-05-15T05:14:05.311Z,9.40
2018-05-15T05:16:33.687Z,9.40
2018-05-15T05:19:01.267Z,9.40
2018-05-15T05:21:28.850Z,9.50
2018-05-15T05:23:57.196Z,9.60
2018-05-15T05:28:53.159Z,9.60
2018-05-15T05:31:20.662Z,9.60
2018-05-15T05:33:48.164Z,9.60
2018-05-15T05:36:15.689Z,9.60
2018-05-15T05:38:43.191Z,9.60
2018-05-15T05:41:10.704Z,9.60
2018-05-15T05:43:38.271Z,9.60
2018-05-15T05:46:05.779Z,9.60
2018-05-15T05:48:33.290Z,9.60
2018-05-15T05:51:00.810Z,9.60
2018-05-15T05:53:28.311Z,9.60
2018-05-15T05:55:55.830Z,9.50
2018-05-15T05:58:23.408Z,9.50
2018-05-15T06:00:50.940Z,9.60
2018-05-15T06:03:18.442Z,9.60
2018-05-15T06:05:46.738Z,9.60
2018-05-15T06:08:14.272Z,9.60
2018-05-15T06:10:42.534Z,9.60
2018-05-15T06:13:10.064Z,9.60
2018-05-15T06:15:37.587Z,9.60
2018-05-15T06:20:58.114Z,9.60
2018-05-15T06:23:25.617Z,9.60
2018-05-15T06:25:53.124Z,9.60
2018-05-15T06:28:20.644Z,9.50
2018-05-15T06:30:48.150Z,9.40
2018-05-15T06:33:15.660Z,9.40
2018-05-15T06:35:43.242Z,9.40
2018-05-15T06:38:11.524Z,9.50
2018-05-15T06:40:39.048Z,9.50
2018-05-15T06:43:06.576Z,9.50
2018-05-15T06:45:34.099Z,9.60
2018-05-15T06:48:16.097Z,9.60
2018-05-15T06:50:43.615Z,9.70
2018-05-15T06:53:11.118Z,9.70
2018-05-15T06:55:38.728Z,9.70
2018-05-15T06:58:20.600Z,9.70
2018-05-15T07:00:48.148Z,9.80
2018-05-15T07:03:15.678Z,9.80
2018-05-15T07:05:43.211Z,9.80
2018-05-15T07:08:10.770Z,9.80
2018-05-15T07:10:39.107Z,9.80
2018-05-15T07:13:06.661Z,9.80
2018-05-15T07:15:34.171Z,9.80
2018-05-15T07:18:07.659Z,9.80
2018-05-15T07:20:35.214Z,9.80
2018-05-15T07:23:02.759Z,9.80
2018-05-15T07:25:30.314Z,9.80
2018-05-15T07:27:57.857Z,9.90
2018-05-15T07:30:25.458Z,9.80
2018-05-15T07:32:52.986Z,9.90
2018-05-15T07:35:20.546Z,10.00
2018-05-15T07:37:53.144Z,10.20
2018-05-15T07:40:21.127Z,10.20
2018-05-15T07:42:48.594Z,10.30
2018-05-15T07:45:16.871Z,10.30
2018-05-15T07:47:45.200Z,10.20
2018-05-15T07:50:12.731Z,10.20
2018-05-15T07:52:40.418Z,10.20
2018-05-15T07:55:07.997Z,10.20
2018-05-15T07:57:35.515Z,10.10
2018-05-15T08:00:03.020Z,10.00
2018-05-15T08:02:31.382Z,10.10
2018-05-15T08:04:58.882Z,10.10
2018-05-15T08:07:26.402Z,10.20
2018-05-15T08:09:53.939Z,10.20
2018-05-15T08:12:21.451Z,10.20
2018-05-15T08:14:49.000Z,10.20
2018-05-15T08:17:16.531Z,10.30
2018-05-15T08:19:44.132Z,10.30
2018-05-15T08:22:11.682Z,10.30
2018-05-15T08:24:39.182Z,10.30
2018-05-15T08:27:06.724Z,10.30
2018-05-15T08:29:34.259Z,10.30
2018-05-15T08:32:01.830Z,10.20
2018-05-15T08:34:29.363Z,10.10
2018-05-15T08:36:56.908Z,10.10
2018-05-15T08:39:24.485Z,10.10
2018-05-15T08:41:52.021Z,10.20
2018-05-15T08:44:19.533Z,10.20
2018-05-15T08:46:47.059Z,10.30
2018-05-15T08:49:14.707Z,10.30
2018-05-15T08:51:42.998Z,10.20
2018-05-15T08:54:10.582Z,10.20
2018-05-15T08:56:38.215Z,10.20
2018-05-15T08:59:05.740Z,10.20
2018-05-15T09:01:33.318Z,10.10
2018-05-15T09:04:01.652Z,10.00
2018-05-15T09:06:29.206Z,10.00
2018-05-15T09:09:06.537Z,10.00
2018-05-15T09:11:34.082Z,10.10
2018-05-15T09:14:01.583Z,10.00
2018-05-15T09:16:29.099Z,10.10
2018-05-15T09:18:56.743Z,10.20
2018-05-15T09:21:24.341Z,10.40
2018-05-15T09:23:51.881Z,10.50
2018-05-15T09:26:19.402Z,10.70
2018-05-15T09:28:47.120Z,10.90
2018-05-15T09:31:14.679Z,11.10
2018-05-15T09:33:42.980Z,11.60
2018-05-15T09:36:10.497Z,11.70
2018-05-15T09:38:38.195Z,11.70
2018-05-15T09:41:05.724Z,11.80
2018-05-15T09:43:54.794Z,11.40
2018-05-15T09:46:22.334Z,11.40
2018-05-15T09:48:49.886Z,11.30
2018-05-15T09:51:17.394Z,11.30
2018-05-15T09:53:44.907Z,11.20
2018-05-15T09:56:12.528Z,11.20
2018-05-15T09:58:40.841Z,11.40
2018-05-15T10:01:08.368Z,11.40
2018-05-15T10:03:35.913Z,11.60
2018-05-15T10:06:03.425Z,11.70
2018-05-15T10:08:30.994Z,12.00
2018-05-15T10:10:58.579Z,12.20
2018-05-15T10:13:26.158Z,12.20
2018-05-15T10:15:53.683Z,12.20
2018-05-15T10:18:26.356Z,12.20
2018-05-15T10:20:53.976Z,12.30
2018-05-15T10:23:21.569Z,12.40
2018-05-15T10:25:49.104Z,12.60
2018-05-15T10:28:16.775Z,12.90
2018-05-15T10:30:44.297Z,13.10
2018-05-15T10:33:11.872Z,13.30
2018-05-15T10:35:39.370Z,13.30
2018-05-15T10:38:06.931Z,13.00
2018-05-15T10:40:35.237Z,12.80
2018-05-15T10:43:02.769Z,12.80
2018-05-15T10:45:30.338Z,12.90
2018-05-15T10:47:57.875Z,13.00
2018-05-15T10:50:26.187Z,12.80
2018-05-15T10:52:53.810Z,12.80
2018-05-15T10:55:22.098Z,12.60
2018-05-15T10:57:49.702Z,12.60
2018-05-15T11:00:17.352Z,12.70
2018-05-15T11:02:44.882Z,12.80
2018-05-15T11:05:12.430Z,12.80
2018-05-15T11:07:40.021Z,12.90
2018-05-15T11:10:07.654Z,13.00
2018-05-15T11:12:35.278Z,13.00
2018-05-15T11:15:02.804Z,13.00
2018-05-15T11:17:30.345Z,12.90
2018-05-15T11:20:09.711Z,12.90
2018-05-15T11:22:49.092Z,12.90
2018-05-15T11:25:16.614Z,12.90
2018-05-15T11:27:44.154Z,12.90
2018-05-15T11:30:11.716Z,12.80
2018-05-15T11:32:39.267Z,12.70
2018-05-15T11:35:06.785Z,12.70
2018-05-15T11:37:35.455Z,12.50
2018-05-15T11:40:02.959Z,12.50
2018-05-15T11:42:30.484Z,12.40
2018-05-15T11:44:58.019Z,12.30
2018-05-15T11:47:25.732Z,12.20
2018-05-15T11:49:53.829Z,12.20
2018-05-15T11:52:21.305Z,12.20
2018-05-15T11:54:48.991Z,12.10
2018-05-15T12:00:10.166Z,12.00
2018-05-15T12:02:37.789Z,12.10
2018-05-15T12:05:05.239Z,12.10
2018-05-15T12:07:32.792Z,12.10
2018-05-15T12:10:00.366Z,12.10
2018-05-15T12:12:27.889Z,12.20
2018-05-15T12:14:55.435Z,12.20
2018-05-15T12:17:22.949Z,12.20
2018-05-15T12:19:50.516Z,12.20
2018-05-15T12:22:18.049Z,12.30
2018-05-15T12:24:45.996Z,12.30
2018-05-15T12:27:23.176Z,12.30
2018-05-15T12:29:51.566Z,12.30
2018-05-15T12:32:19.151Z,12.30
2018-05-15T12:34:46.701Z,12.20
2018-05-15T12:40:08.094Z,12.20
2018-05-15T12:42:35.666Z,12.30
2018-05-15T12:45:03.187Z,12.30
2018-05-15T12:47:30.795Z,12.30
2018-05-15T12:49:59.079Z,12.40
2018-05-15T12:52:26.585Z,12.30
2018-05-15T12:54:54.152Z,12.40
2018-05-15T12:57:26.779Z,12.50
2018-05-15T12:59:54.327Z,12.60
2018-05-15T13:02:22.612Z,12.90
2018-05-15T13:04:50.141Z,12.80
2018-05-15T13:07:17.688Z,12.90
2018-05-15T13:09:45.188Z,13.00
2018-05-15T13:12:12.760Z,12.90
2018-05-15T13:14:40.310Z,12.90
2018-05-15T13:17:07.847Z,12.90
2018-05-15T13:19:35.407Z,12.90
2018-05-15T13:22:03.719Z,12.90
2018-05-15T13:24:31.297Z,12.90
2018-05-15T13:26:58.795Z,12.90
2018-05-15T13:29:27.152Z,13.10
2018-05-15T13:31:54.694Z,13.10
2018-05-15T13:34:22.991Z,13.40
2018-05-15T13:36:50.518Z,13.40
2018-05-15T13:39:18.060Z,13.30
2018-05-15T13:41:45.566Z,13.30
2018-05-15T13:44:13.159Z,13.30
2018-05-15T13:46:40.732Z,13.40
2018-05-15T13:49:08.264Z,13.40
2018-05-15T13:51:36.553Z,13.50
2018-05-15T13:54:04.091Z,13.50
2018-05-15T13:56:31.626Z,13.60
2018-05-15T13:58:59.155Z,13.70
2018-05-15T14:01:27.456Z,13.80
2018-05-15T14:03:54.995Z,13.90
2018-05-15T14:06:22.526Z,14.20
2018-05-15T14:08:50.038Z,14.40
2018-05-15T14:11:17.640Z,14.50
2018-05-15T14:13:45.231Z,14.50
2018-05-15T14:16:12.796Z,14.50
2018-05-15T14:18:40.518Z,14.60
2018-05-15T14:21:08.019Z,14.60
2018-05-15T14:23:35.531Z,14.60
2018-05-15T14:26:03.075Z,14.80
2018-05-15T14:28:30.707Z,14.80
2018-05-15T14:30:58.266Z,14.80
2018-05-15T14:33:25.816Z,14.70
2018-05-15T14:35:53.329Z,14.60
2018-05-15T14:38:25.987Z,14.70
2018-05-15T14:40:53.509Z,14.70
2018-05-15T14:43:25.644Z,14.70
2018-05-15T14:45:53.166Z,14.60
2018-05-15T14:48:20.758Z,14.50
2018-05-15T14:54:08.990Z,14.40
2018-05-15T14:56:37.281Z,14.40
2018-05-15T14:59:04.956Z,14.40
2018-05-15T15:01:35.755Z,14.30
2018-05-15T15:09:25.410Z,14.10
2018-05-15T15:29:47.631Z,14.00
2018-05-15T16:27:59.960Z,14.30
